Time;durP1;ratioP1;P1;durP2;ratioP2;P2;SDS_P1;SDS_P2;PMS_P1;PMS_P2;Temp;Humidity;BMP_temperature;BMP_pressure;BME280_temperature;BME280_humidity;BME280_pressure;Samples;Min_cycle;Max_cycle;Signal;HPM_P1;HPM_P2
2023/06/30 00:00:33;;;;;;;7.82;4.60;;;16.10;99.90;;;;;;6230119;22;20103;-87
2023/06/30 00:02:59;;;;;;;7.80;5.10;;;16.00;99.90;;;;;;6230775;22;20012;-87
2023/06/30 00:05:25;;;;;;;10.35;5.50;;;16.10;99.90;;;;;;6256925;22;20016;-90
2023/06/30 00:07:54;;;;;;;9.88;5.50;;;16.00;99.90;;;;;;6255629;22;20012;-87
2023/06/30 00:10:21;;;;;;;10.30;5.30;;;15.90;99.90;;;;;;6255389;22;20015;-88
2023/06/30 00:12:47;;;;;;;12.95;5.47;;;16.00;99.90;;;;;;6231246;22;20050;-87
2023/06/30 00:15:13;;;;;;;11.38;5.20;;;15.90;99.90;;;;;;6230470;22;20614;-87
2023/06/30 00:17:38;;;;;;;9.85;5.97;;;15.90;99.90;;;;;;6232605;22;20344;-87
2023/06/30 00:20:05;;;;;;;10.70;6.53;;;15.90;99.90;;;;;;6231855;22;20062;-87
2023/06/30 00:22:35;;;;;;;7.45;5.95;;;15.90;99.90;;;;;;6256205;22;20091;-87
2023/06/30 00:25:01;;;;;;;6.80;5.40;;;15.90;99.90;;;;;;6255559;22;20012;-87
2023/06/30 00:27:27;;;;;;;8.65;5.70;;;15.90;99.90;;;;;;6230320;22;20018;-87
2023/06/30 00:29:52;;;;;;;9.13;5.63;;;15.90;99.90;;;;;;6229863;22;20059;-87
2023/06/30 00:32:18;;;;;;;12.90;5.25;;;15.80;99.90;;;;;;6256149;22;20035;-89
2023/06/30 00:34:44;;;;;;;12.13;5.68;;;15.80;99.90;;;;;;6255807;22;20091;-87
2023/06/30 00:37:10;;;;;;;8.48;5.75;;;15.70;99.90;;;;;;6230539;22;20023;-87
2023/06/30 00:39:35;;;;;;;10.40;4.75;;;15.70;99.90;;;;;;6230697;22;20525;-87
2023/06/30 00:42:02;;;;;;;7.32;5.13;;;15.70;99.90;;;;;;6230312;22;20074;-88
2023/06/30 00:44:27;;;;;;;10.45;5.05;;;15.60;99.90;;;;;;6255691;22;20018;-88
2023/06/30 00:46:53;;;;;;;11.63;4.88;;;15.60;99.90;;;;;;6256744;22;20011;-87
2023/06/30 00:49:19;;;;;;;9.93;5.25;;;15.50;99.90;;;;;;6254950;22;20012;-87
2023/06/30 00:51:45;;;;;;;9.50;4.57;;;15.50;99.90;;;;;;6254690;22;20010;-87
2023/06/30 00:54:11;;;;;;;13.18;4.72;;;15.40;99.90;;;;;;6230421;22;20011;-89
2023/06/30 00:56:36;;;;;;;9.75;4.13;;;15.40;99.90;;;;;;6230477;22;20030;-87
2023/06/30 00:59:02;;;;;;;7.90;4.75;;;15.30;99.90;;;;;;6231231;22;20008;-88
2023/06/30 01:01:43;;;;;;;9.88;4.50;;;15.30;99.90;;;;;;6228506;22;20440;-87
2023/06/30 01:04:56;;;;;;;10.80;5.07;;;15.20;99.90;;;;;;6228445;22;20008;-87
2023/06/30 01:07:42;;;;;;;10.88;4.47;;;15.10;99.90;;;;;;6189392;22;20087;-87
2023/06/30 01:10:17;;;;;;;7.60;4.70;;;15.00;99.90;;;;;;6229540;22;20012;-87
2023/06/30 01:12:43;;;;;;;8.02;4.30;;;14.90;99.90;;;;;;6254806;22;20073;-88
2023/06/30 01:15:10;;;;;;;9.50;4.78;;;14.90;99.90;;;;;;6229808;22;20572;-87
2023/06/30 01:17:41;;;;;;;6.95;4.28;;;14.90;99.90;;;;;;6229752;22;20011;-87
2023/06/30 01:20:10;;;;;;;8.02;4.70;;;14.80;99.90;;;;;;6254260;22;20008;-87
2023/06/30 01:22:44;;;;;;;5.47;3.97;;;14.70;99.90;;;;;;6228822;22;20091;-87
2023/06/30 01:25:22;;;;;;;6.70;4.25;;;14.70;99.90;;;;;;6253602;22;20019;-88
2023/06/30 01:27:49;;;;;;;7.00;4.15;;;14.60;99.90;;;;;;6227570;22;20530;-88
2023/06/30 01:30:15;;;;;;;7.85;3.97;;;14.60;99.90;;;;;;6226980;22;20012;-88
2023/06/30 01:32:41;;;;;;;7.53;3.97;;;14.60;99.90;;;;;;6251054;22;20008;-88
2023/06/30 01:35:07;;;;;;;10.15;4.47;;;14.50;99.90;;;;;;6225649;22;20018;-88
2023/06/30 01:37:33;;;;;;;9.18;4.38;;;14.40;99.90;;;;;;6252099;22;20015;-88
2023/06/30 01:40:00;;;;;;;7.47;3.90;;;14.40;99.90;;;;;;6251635;22;20353;-88
2023/06/30 01:42:27;;;;;;;6.05;3.75;;;14.40;99.90;;;;;;6251806;22;20022;-88
2023/06/30 01:44:53;;;;;;;10.80;4.18;;;14.30;99.90;;;;;;6225418;22;20016;-88
2023/06/30 01:47:19;;;;;;;7.47;3.38;;;14.30;99.90;;;;;;6226162;22;20008;-88
2023/06/30 01:49:45;;;;;;;8.20;4.10;;;14.30;99.90;;;;;;6226827;22;20431;-88
2023/06/30 01:52:11;;;;;;;6.50;3.75;;;14.20;99.90;;;;;;6252605;22;20043;-87
2023/06/30 01:54:37;;;;;;;6.55;3.85;;;14.20;99.90;;;;;;6226180;22;20452;-88
2023/06/30 01:57:03;;;;;;;7.10;3.65;;;14.10;99.90;;;;;;6252022;22;20008;-88
2023/06/30 01:59:28;;;;;;;8.80;4.18;;;14.10;99.90;;;;;;6251036;22;20030;-89
2023/06/30 02:01:54;;;;;;;6.28;3.53;;;14.10;99.90;;;;;;6251363;22;20008;-88
2023/06/30 02:04:19;;;;;;;8.45;3.88;;;14.00;99.90;;;;;;6252317;22;20317;-88
2023/06/30 02:06:45;;;;;;;6.82;3.17;;;14.00;99.90;;;;;;6250533;22;20391;-88
2023/06/30 02:09:12;;;;;;;6.53;3.80;;;13.90;99.90;;;;;;6251233;22;20030;-88
2023/06/30 02:11:38;;;;;;;6.50;3.80;;;13.80;99.90;;;;;;6250777;22;20012;-89
2023/06/30 02:14:03;;;;;;;3.70;3.13;;;13.80;99.90;;;;;;6251143;22;20008;-88
2023/06/30 02:16:29;;;;;;;6.43;3.47;;;13.70;99.90;;;;;;6252267;22;20360;-88
2023/06/30 02:18:55;;;;;;;7.15;3.40;;;13.70;99.90;;;;;;6251372;22;20015;-88
2023/06/30 02:21:21;;;;;;;7.20;3.63;;;13.60;99.90;;;;;;6225778;22;20012;-88
2023/06/30 02:23:48;;;;;;;8.23;4.00;;;13.60;99.90;;;;;;6251317;22;20022;-88
2023/06/30 02:26:14;;;;;;;6.70;4.00;;;13.50;99.90;;;;;;6225929;22;20012;-88
2023/06/30 02:28:40;;;;;;;7.05;3.30;;;13.50;99.90;;;;;;6251760;22;20043;-88
2023/06/30 02:31:05;;;;;;;6.10;3.22;;;13.40;99.90;;;;;;6249784;22;20444;-88
2023/06/30 02:33:31;;;;;;;7.72;4.07;;;13.40;99.90;;;;;;6248023;22;20143;-88
2023/06/30 02:35:57;;;;;;;7.30;3.58;;;13.30;99.90;;;;;;6222174;22;20461;-87
2023/06/30 02:38:22;;;;;;;5.95;3.10;;;13.20;99.90;;;;;;6247331;22;20012;-88
2023/06/30 02:40:48;;;;;;;7.57;3.78;;;13.20;99.90;;;;;;6221885;22;20020;-87
2023/06/30 02:43:14;;;;;;;8.13;3.75;;;13.10;99.90;;;;;;6247239;22;20007;-87
2023/06/30 02:45:39;;;;;;;5.45;3.55;;;13.10;99.90;;;;;;6222334;22;20069;-89
2023/06/30 02:48:05;;;;;;;7.75;3.78;;;13.10;99.90;;;;;;6222181;22;20007;-88
2023/06/30 02:50:31;;;;;;;7.68;3.63;;;13.00;99.90;;;;;;6247347;22;20057;-88
2023/06/30 02:53:00;;;;;;;8.13;3.30;;;13.00;99.90;;;;;;6246375;22;20479;-88
2023/06/30 02:55:26;;;;;;;6.35;3.22;;;12.90;99.90;;;;;;6222018;22;20018;-87
2023/06/30 02:57:52;;;;;;;7.57;3.50;;;12.90;99.90;;;;;;6221908;22;20011;-88
2023/06/30 03:00:19;;;;;;;10.68;3.92;;;12.90;99.90;;;;;;6247138;22;20349;-87
2023/06/30 03:02:44;;;;;;;4.65;3.50;;;12.80;99.90;;;;;;6221424;22;20011;-89
2023/06/30 03:05:10;;;;;;;4.75;3.75;;;12.80;99.90;;;;;;6221851;22;20011;-88
2023/06/30 03:07:37;;;;;;;7.03;3.67;;;12.70;99.90;;;;;;6247789;22;20074;-89
2023/06/30 03:10:03;;;;;;;5.50;3.58;;;12.70;99.90;;;;;;6246999;22;20012;-89
2023/06/30 03:12:28;;;;;;;8.00;3.67;;;12.60;99.90;;;;;;6221157;22;20019;-89
2023/06/30 03:14:54;;;;;;;6.97;3.45;;;12.60;99.90;;;;;;6221991;22;20007;-89
2023/06/30 03:17:20;;;;;;;9.00;4.05;;;12.50;99.90;;;;;;6247071;22;20019;-90
2023/06/30 03:19:46;;;;;;;6.22;3.40;;;12.60;99.90;;;;;;6246974;22;20016;-89
2023/06/30 03:22:11;;;;;;;6.18;4.00;;;12.50;99.90;;;;;;6222110;22;20091;-89
2023/06/30 03:24:37;;;;;;;7.47;3.70;;;12.50;99.90;;;;;;6247420;22;20337;-89
2023/06/30 03:27:04;;;;;;;7.80;4.07;;;12.50;99.90;;;;;;6221518;22;20353;-89
2023/06/30 03:29:29;;;;;;;5.50;3.38;;;12.50;99.90;;;;;;6247110;22;20043;-89
2023/06/30 03:31:55;;;;;;;4.97;3.67;;;12.50;99.90;;;;;;6222707;22;20437;-90
2023/06/30 03:34:21;;;;;;;7.80;4.00;;;12.50;99.90;;;;;;6249261;22;20004;-89
2023/06/30 03:36:46;;;;;;;8.88;3.75;;;12.40;99.90;;;;;;6249520;22;20070;-89
2023/06/30 03:39:12;;;;;;;10.82;3.97;;;12.40;99.90;;;;;;6248972;22;20007;-90
2023/06/30 03:41:38;;;;;;;10.18;4.03;;;12.40;99.90;;;;;;6223911;22;20043;-90
2023/06/30 03:44:03;;;;;;;9.07;4.10;;;12.40;99.90;;;;;;6249079;22;20046;-89
2023/06/30 03:46:29;;;;;;;7.18;4.68;;;12.40;99.90;;;;;;6249895;22;20019;-89
2023/06/30 03:48:55;;;;;;;6.78;4.13;;;12.40;99.90;;;;;;6249908;22;20071;-89
2023/06/30 03:51:20;;;;;;;8.82;3.83;;;12.40;99.90;;;;;;6250454;22;20634;-90
2023/06/30 03:53:46;;;;;;;8.80;4.55;;;12.40;99.90;;;;;;6223792;22;20012;-90
2023/06/30 03:56:12;;;;;;;6.43;4.50;;;12.40;99.90;;;;;;6249316;22;20008;-89
2023/06/30 03:58:38;;;;;;;7.68;4.47;;;12.40;99.90;;;;;;6250231;22;20018;-89
2023/06/30 04:01:04;;;;;;;8.32;4.38;;;12.30;99.90;;;;;;6223368;22;20012;-90
2023/06/30 04:03:30;;;;;;;9.68;4.43;;;12.40;99.90;;;;;;6224130;22;20012;-89
2023/06/30 04:05:56;;;;;;;10.95;4.18;;;12.30;99.90;;;;;;6249000;22;20203;-89
2023/06/30 04:08:22;;;;;;;6.50;4.38;;;12.30;99.90;;;;;;6223385;22;20039;-89
2023/06/30 04:10:48;;;;;;;5.10;4.20;;;12.30;99.90;;;;;;6249074;22;20037;-88
2023/06/30 04:13:13;;;;;;;10.65;4.43;;;12.30;99.90;;;;;;6247834;22;20387;-90
2023/06/30 04:15:39;;;;;;;6.72;3.80;;;12.30;99.90;;;;;;6248726;22;20090;-88
2023/06/30 04:18:05;;;;;;;6.97;4.30;;;12.30;99.90;;;;;;6223935;22;20078;-88
2023/06/30 04:20:31;;;;;;;5.07;3.40;;;12.30;99.90;;;;;;6248721;22;20011;-88
2023/06/30 04:22:56;;;;;;;11.80;4.07;;;12.40;99.90;;;;;;6222754;22;20039;-87
2023/06/30 04:25:22;;;;;;;6.38;4.20;;;12.40;99.90;;;;;;6248334;22;20012;-90
2023/06/30 04:27:56;;;;;;;8.70;4.20;;;12.40;99.90;;;;;;6223689;22;20015;-91
2023/06/30 04:30:22;;;;;;;6.07;3.70;;;12.40;99.90;;;;;;6248109;22;20456;-92
2023/06/30 04:32:48;;;;;;;6.70;4.32;;;12.40;99.90;;;;;;6223021;22;20022;-86
2023/06/30 04:35:14;;;;;;;7.68;3.80;;;12.50;99.90;;;;;;6247563;22;20003;-86
2023/06/30 04:37:40;;;;;;;5.07;3.90;;;12.50;99.90;;;;;;6247856;22;20039;-86
2023/06/30 04:40:10;;;;;;;8.85;4.80;;;12.50;99.90;;;;;;6248136;22;20421;-86
2023/06/30 04:42:36;;;;;;;7.50;3.80;;;12.50;99.90;;;;;;6221429;22;20011;-86
2023/06/30 04:45:04;;;;;;;5.97;3.80;;;12.50;99.90;;;;;;6247400;22;20015;-86
2023/06/30 04:47:30;;;;;;;6.88;3.88;;;12.50;99.90;;;;;;6220125;22;20019;-87
2023/06/30 04:49:55;;;;;;;7.45;4.05;;;12.50;99.90;;;;;;6247510;22;20012;-86
2023/06/30 04:52:21;;;;;;;8.95;4.70;;;12.50;99.90;;;;;;6247425;22;20061;-87
2023/06/30 04:54:47;;;;;;;10.32;4.75;;;12.60;99.90;;;;;;6246979;22;20023;-87
2023/06/30 04:57:12;;;;;;;7.70;4.65;;;12.60;99.90;;;;;;6247114;22;20015;-86
2023/06/30 04:59:38;;;;;;;8.75;3.78;;;12.60;99.90;;;;;;6247635;22;20016;-86
2023/06/30 05:02:04;;;;;;;10.27;3.63;;;12.70;99.90;;;;;;6246902;22;20007;-86
2023/06/30 05:04:30;;;;;;;7.75;4.03;;;12.80;99.90;;;;;;6247379;22;20448;-86
2023/06/30 05:06:56;;;;;;;8.43;4.22;;;12.80;99.90;;;;;;6246708;22;20049;-86
2023/06/30 05:09:25;;;;;;;6.65;4.00;;;12.90;99.90;;;;;;6246462;22;20015;-87
2023/06/30 05:11:50;;;;;;;5.32;3.45;;;13.00;99.90;;;;;;6220782;22;20032;-86
2023/06/30 05:14:16;;;;;;;7.15;3.65;;;13.00;99.90;;;;;;6245612;22;20027;-86
2023/06/30 05:16:42;;;;;;;9.65;3.90;;;13.10;99.90;;;;;;6221706;22;20012;-86
2023/06/30 05:19:08;;;;;;;6.85;3.50;;;13.30;99.90;;;;;;6246061;22;20440;-86
2023/06/30 05:21:34;;;;;;;9.13;3.85;;;13.40;99.90;;;;;;6245672;22;20014;-87
2023/06/30 05:23:59;;;;;;;7.43;3.60;;;13.50;99.90;;;;;;6221502;22;20004;-86
2023/06/30 05:26:25;;;;;;;9.35;3.53;;;13.60;99.90;;;;;;6246760;22;20413;-86
2023/06/30 05:28:51;;;;;;;7.57;3.88;;;13.70;99.90;;;;;;6246690;22;20490;-87
2023/06/30 05:31:17;;;;;;;9.82;3.83;;;13.80;99.90;;;;;;6247098;22;20340;-86
2023/06/30 05:33:42;;;;;;;8.20;3.60;;;13.90;99.90;;;;;;6222125;22;20004;-86
2023/06/30 05:36:08;;;;;;;8.68;3.65;;;14.00;99.90;;;;;;6247433;22;20015;-87
2023/06/30 05:38:33;;;;;;;5.78;3.47;;;14.10;99.90;;;;;;6247471;22;20026;-86
2023/06/30 05:40:59;;;;;;;10.57;3.72;;;14.20;99.90;;;;;;6248075;22;20095;-86
2023/06/30 05:43:26;;;;;;;7.50;4.13;;;14.40;99.90;;;;;;6247807;22;20027;-86
2023/06/30 05:45:51;;;;;;;5.97;4.10;;;14.60;99.90;;;;;;6247997;22;20019;-86
2023/06/30 05:48:17;;;;;;;5.95;3.17;;;14.80;99.90;;;;;;6248304;22;20094;-86
2023/06/30 05:50:45;;;;;;;8.07;3.60;;;14.90;99.90;;;;;;6247940;22;20038;-86
2023/06/30 05:53:11;;;;;;;5.90;3.03;;;15.00;99.90;;;;;;6247264;22;20348;-86
2023/06/30 05:55:36;;;;;;;7.60;3.60;;;15.10;99.90;;;;;;6248379;22;20008;-85
2023/06/30 05:58:02;;;;;;;6.03;2.97;;;15.10;99.90;;;;;;6249532;22;20011;-86
2023/06/30 06:00:27;;;;;;;7.07;3.60;;;15.30;99.90;;;;;;6248424;22;20022;-86
2023/06/30 06:02:54;;;;;;;7.30;2.88;;;15.40;99.90;;;;;;6223223;22;20042;-87
2023/06/30 06:05:20;;;;;;;5.60;3.17;;;15.50;99.90;;;;;;6222551;22;20011;-86
2023/06/30 06:07:45;;;;;;;9.57;3.75;;;15.60;99.90;;;;;;6247252;22;20047;-86
2023/06/30 06:10:11;;;;;;;5.10;3.00;;;15.70;99.90;;;;;;6247583;22;20310;-86
2023/06/30 06:12:40;;;;;;;5.80;3.30;;;15.80;99.90;;;;;;6247281;22;20049;-86
2023/06/30 06:15:07;;;;;;;7.38;3.30;;;15.90;99.90;;;;;;6222508;22;20041;-85
2023/06/30 06:17:32;;;;;;;5.82;3.00;;;16.00;99.90;;;;;;6247670;22;20099;-86
2023/06/30 06:19:58;;;;;;;7.20;3.38;;;16.10;99.90;;;;;;6247917;22;20015;-86
2023/06/30 06:22:24;;;;;;;8.52;3.20;;;16.20;99.90;;;;;;6221976;22;20008;-86
2023/06/30 06:24:49;;;;;;;5.93;2.72;;;16.30;99.90;;;;;;6247008;22;20106;-87
2023/06/30 06:27:15;;;;;;;4.72;3.13;;;16.40;99.90;;;;;;6222756;22;20015;-83
2023/06/30 06:29:41;;;;;;;5.95;3.17;;;16.30;99.90;;;;;;6250334;22;20073;-83
2023/06/30 06:32:07;;;;;;;8.23;2.85;;;16.40;99.90;;;;;;6248367;22;20353;-90
2023/06/30 06:34:34;;;;;;;8.98;3.22;;;16.50;99.90;;;;;;6191485;23;20111;-90
2023/06/30 06:37:00;;;;;;;8.60;3.00;;;16.70;99.90;;;;;;6190602;23;20376;-90
2023/06/30 06:39:26;;;;;;;8.00;2.80;;;16.90;99.90;;;;;;6190778;23;20008;-90
2023/06/30 06:41:52;;;;;;;4.72;2.15;;;17.20;99.90;;;;;;6190715;23;20008;-90
2023/06/30 06:44:18;;;;;;;4.82;2.20;;;17.40;99.90;;;;;;6215539;22;20015;-91
2023/06/30 06:46:43;;;;;;;6.10;2.50;;;17.40;99.90;;;;;;6190884;23;20012;-90
2023/06/30 06:49:10;;;;;;;7.65;2.05;;;17.70;99.90;;;;;;6216230;23;20008;-89
2023/06/30 06:51:35;;;;;;;5.07;2.47;;;17.80;99.90;;;;;;6217806;23;20084;-89
2023/06/30 06:54:01;;;;;;;5.32;2.30;;;18.00;99.90;;;;;;6193096;23;20436;-90
2023/06/30 06:56:27;;;;;;;4.10;1.77;;;18.10;99.90;;;;;;6218085;23;20008;-90
2023/06/30 06:58:52;;;;;;;6.28;1.60;;;18.20;99.90;;;;;;6217636;23;20087;-90
2023/06/30 07:01:18;;;;;;;7.32;2.10;;;18.30;99.90;;;;;;6193011;23;20162;-90
2023/06/30 07:03:44;;;;;;;4.57;1.85;;;18.10;99.90;;;;;;6192668;23;20016;-91
2023/06/30 07:06:09;;;;;;;3.22;1.67;;;18.00;99.90;;;;;;6191949;23;20446;-90
2023/06/30 07:08:35;;;;;;;5.22;2.00;;;17.90;99.90;;;;;;6192699;23;20089;-90
2023/06/30 07:11:06;;;;;;;5.85;1.77;;;17.80;99.90;;;;;;6217697;23;20027;-90
2023/06/30 07:13:32;;;;;;;4.38;2.03;;;17.80;99.90;;;;;;6218288;23;20008;-90
2023/06/30 07:15:57;;;;;;;4.47;1.80;;;18.00;99.90;;;;;;6192383;23;20015;-90
2023/06/30 07:18:25;;;;;;;3.55;1.58;;;18.30;99.90;;;;;;6217609;23;20058;-91
2023/06/30 07:20:53;;;;;;;5.95;1.63;;;18.30;99.90;;;;;;6217248;23;20020;-91
2023/06/30 07:23:19;;;;;;;5.97;1.65;;;18.30;99.90;;;;;;6192811;23;20040;-90
2023/06/30 07:25:46;;;;;;;4.70;2.22;;;18.30;99.90;;;;;;6191941;23;20008;-90
2023/06/30 07:28:12;;;;;;;3.65;1.75;;;18.50;99.90;;;;;;6192537;23;20016;-91
2023/06/30 07:30:39;;;;;;;7.07;2.10;;;18.60;99.90;;;;;;6192888;23;20410;-90
2023/06/30 07:33:05;;;;;;;6.05;1.83;;;18.60;99.90;;;;;;6192033;23;20505;-92
2023/06/30 07:35:31;;;;;;;3.28;1.52;;;18.70;99.90;;;;;;6192253;23;20004;-90
2023/06/30 07:37:56;;;;;;;4.32;1.52;;;18.70;99.90;;;;;;6192202;23;20013;-90
2023/06/30 07:40:22;;;;;;;4.60;1.60;;;18.80;99.90;;;;;;6192425;23;20043;-90
2023/06/30 07:42:48;;;;;;;3.97;1.65;;;18.70;99.90;;;;;;6192901;23;20492;-90
2023/06/30 07:45:15;;;;;;;5.35;1.80;;;18.70;99.90;;;;;;6192342;23;20078;-91
2023/06/30 07:47:42;;;;;;;3.40;1.60;;;18.70;99.90;;;;;;6192117;23;20012;-90
2023/06/30 07:50:13;;;;;;;4.03;1.52;;;18.80;99.90;;;;;;6192127;23;20022;-91
2023/06/30 07:52:49;;;;;;;6.00;2.05;;;18.90;99.90;;;;;;6192083;23;20102;-89
2023/06/30 07:55:17;;;;;;;4.63;1.58;;;19.10;99.90;;;;;;6217203;23;20015;-89
2023/06/30 07:57:44;;;;;;;4.57;1.55;;;19.10;99.90;;;;;;6191852;23;20014;-89
2023/06/30 08:00:10;;;;;;;4.05;1.50;;;19.10;99.90;;;;;;6192601;23;20016;-90
2023/06/30 08:02:37;;;;;;;2.60;1.25;;;19.20;99.90;;;;;;6192259;23;20449;-91
2023/06/30 08:05:03;;;;;;;3.88;1.42;;;19.20;99.90;;;;;;6216818;23;20016;-90
2023/06/30 08:07:29;;;;;;;3.75;1.67;;;19.30;99.90;;;;;;6192546;23;20448;-90
2023/06/30 08:09:55;;;;;;;2.40;1.48;;;19.70;99.90;;;;;;6192567;23;20015;-90
2023/06/30 08:12:29;;;;;;;4.00;1.60;;;19.80;99.90;;;;;;6193173;23;20437;-90
2023/06/30 08:14:54;;;;;;;2.28;1.30;;;19.90;99.90;;;;;;6192671;23;20008;-91
2023/06/30 08:17:23;;;;;;;2.58;1.67;;;19.90;99.90;;;;;;6217820;23;20043;-90
2023/06/30 08:19:48;;;;;;;3.47;1.42;;;19.80;99.90;;;;;;6194657;23;20461;-89
2023/06/30 08:22:15;;;;;;;4.38;1.63;;;20.10;99.90;;;;;;6219759;23;20023;-89
2023/06/30 08:24:44;;;;;;;4.13;1.70;;;20.40;99.90;;;;;;6220153;23;20047;-91
2023/06/30 08:27:09;;;;;;;3.10;1.55;;;20.70;99.90;;;;;;6194593;23;20023;-91
2023/06/30 08:29:36;;;;;;;4.38;1.73;;;20.70;99.90;;;;;;6220405;23;20004;-92
2023/06/30 08:32:02;;;;;;;4.80;1.65;;;20.50;99.90;;;;;;6195080;23;20371;-92
2023/06/30 08:34:28;;;;;;;5.22;1.40;;;20.40;99.90;;;;;;6194630;22;20019;-93
2023/06/30 08:36:55;;;;;;;4.85;1.50;;;20.50;99.90;;;;;;6195007;23;20375;-93
2023/06/30 08:39:31;;;;;;;4.35;1.33;;;20.60;99.90;;;;;;6219548;23;20471;-92
2023/06/30 08:42:03;;;;;;;3.78;1.30;;;20.80;99.90;;;;;;6220481;23;20015;-93
2023/06/30 08:44:34;;;;;;;3.33;1.30;;;21.00;99.90;;;;;;6195105;22;20353;-92
2023/06/30 08:47:01;;;;;;;3.58;1.30;;;21.00;99.90;;;;;;6194606;23;20013;-92
2023/06/30 08:49:29;;;;;;;2.28;0.90;;;21.20;99.90;;;;;;6221515;23;20012;-93
2023/06/30 08:51:59;;;;;;;1.88;1.00;;;21.50;99.90;;;;;;6219769;23;20019;-93
2023/06/30 08:54:30;;;;;;;1.67;1.40;;;21.80;99.90;;;;;;6196524;22;20016;-94
2023/06/30 08:57:00;;;;;;;1.70;1.10;;;22.00;99.90;;;;;;6195392;23;20011;-92
2023/06/30 08:59:27;;;;;;;1.67;1.08;;;21.80;99.90;;;;;;6195042;23;20022;-93
2023/06/30 09:01:54;;;;;;;4.13;1.08;;;21.60;99.90;;;;;;6193791;23;20012;-91
2023/06/30 09:04:22;;;;;;;4.57;1.50;;;21.70;99.90;;;;;;6194660;22;20015;-93
2023/06/30 09:06:55;;;;;;;2.22;1.10;;;21.80;99.90;;;;;;6219358;23;20484;-92
2023/06/30 09:09:29;;;;;;;2.10;1.13;;;22.00;99.90;;;;;;6194610;23;20481;-92
2023/06/30 09:11:55;;;;;;;2.63;0.80;;;22.30;99.90;;;;;;6193035;23;20430;-87
2023/06/30 09:14:23;;;;;;;2.50;1.33;;;22.60;99.40;;;;;;6192925;22;20012;-83
2023/06/30 09:16:49;;;;;;;2.80;1.17;;;22.90;99.90;;;;;;6217659;23;20020;-84
2023/06/30 09:19:15;;;;;;;2.25;1.15;;;22.80;99.60;;;;;;6217041;23;20058;-85
2023/06/30 09:21:41;;;;;;;2.35;1.23;;;22.60;99.90;;;;;;6216278;23;20008;-85
2023/06/30 09:24:07;;;;;;;2.55;1.10;;;22.30;99.90;;;;;;6217634;23;20032;-86
2023/06/30 09:26:34;;;;;;;3.00;1.30;;;22.40;99.90;;;;;;6221325;23;20031;-92
2023/06/30 09:29:01;;;;;;;8.43;3.13;;;22.60;99.90;;;;;;6196844;23;20079;-92
2023/06/30 09:31:33;;;;;;;6.25;2.17;;;23.10;99.90;;;;;;6195319;23;20044;-93
2023/06/30 09:34:13;;;;;;;3.90;1.20;;;23.60;96.30;;;;;;6192796;23;20008;-93
2023/06/30 09:36:47;;;;;;;3.50;1.48;;;23.70;94.80;;;;;;6197132;23;20334;-93
2023/06/30 09:39:13;;;;;;;2.33;1.00;;;24.00;88.80;;;;;;6196532;23;20016;-93
2023/06/30 09:41:45;;;;;;;3.45;1.10;;;24.30;95.40;;;;;;6194299;23;20012;-93
2023/06/30 09:44:13;;;;;;;3.28;1.23;;;24.00;89.40;;;;;;6196039;22;20051;-93
2023/06/30 09:46:49;;;;;;;1.33;1.08;;;23.60;92.10;;;;;;6199779;23;20016;-93
2023/06/30 09:49:33;;;;;;;2.33;1.15;;;23.40;88.90;;;;;;6196365;23;20082;-92
2023/06/30 09:52:03;;;;;;;1.38;1.05;;;23.50;82.80;;;;;;6195657;23;20337;-92
2023/06/30 09:54:30;;;;;;;2.92;1.13;;;23.80;90.50;;;;;;6196982;22;20031;-94
2023/06/30 09:57:00;;;;;;;2.20;1.10;;;23.80;89.60;;;;;;6220367;23;20012;-94
2023/06/30 09:59:27;;;;;;;3.30;1.30;;;23.60;72.40;;;;;;6196575;23;20060;-93
2023/06/30 10:01:56;;;;;;;3.00;1.17;;;24.00;80.40;;;;;;6195920;23;20012;-93
2023/06/30 10:04:23;;;;;;;3.65;1.10;;;24.40;78.40;;;;;;6197151;22;20008;-94
2023/06/30 10:06:51;;;;;;;3.30;1.30;;;24.80;77.90;;;;;;6195030;23;20027;-93
2023/06/30 10:09:19;;;;;;;2.03;1.00;;;25.10;74.70;;;;;;6197605;23;20425;-93
2023/06/30 10:11:48;;;;;;;2.45;1.08;;;25.40;73.20;;;;;;6222471;23;20082;-93
2023/06/30 10:14:16;;;;;;;2.83;1.10;;;25.40;70.10;;;;;;6198486;22;20066;-94
2023/06/30 10:16:42;;;;;;;1.90;1.17;;;25.10;68.70;;;;;;6225318;23;20405;-93
2023/06/30 10:19:08;;;;;;;2.97;1.20;;;24.70;66.50;;;;;;6196451;23;20198;-92
2023/06/30 10:21:34;;;;;;;2.17;1.27;;;24.20;66.20;;;;;;6219607;23;20010;-93
2023/06/30 10:24:02;;;;;;;2.53;1.00;;;23.40;63.60;;;;;;6221473;23;20508;-93
2023/06/30 10:26:30;;;;;;;2.67;1.15;;;23.60;66.40;;;;;;6194514;23;20457;-91
2023/06/30 10:28:55;;;;;;;2.00;0.88;;;23.80;64.30;;;;;;6194657;23;20012;-92
2023/06/30 10:31:22;;;;;;;2.22;1.20;;;24.00;60.70;;;;;;6220182;23;20487;-93
2023/06/30 10:33:48;;;;;;;3.00;1.10;;;24.30;60.60;;;;;;6195445;23;20008;-92
2023/06/30 10:36:17;;;;;;;2.25;1.33;;;24.80;59.60;;;;;;6219636;23;20526;-92
2023/06/30 10:38:43;;;;;;;3.88;1.40;;;25.20;62.00;;;;;;6219557;23;20063;-93
2023/06/30 10:41:16;;;;;;;2.80;1.10;;;25.70;59.40;;;;;;6220077;23;20083;-93
2023/06/30 10:44:01;;;;;;;3.83;1.45;;;25.80;57.50;;;;;;6195280;23;20012;-93
2023/06/30 10:46:42;;;;;;;3.00;1.20;;;26.10;55.40;;;;;;6194391;23;20012;-93
2023/06/30 10:49:16;;;;;;;4.15;1.40;;;26.10;57.60;;;;;;6193551;23;20065;-93
2023/06/30 10:51:46;;;;;;;4.22;1.60;;;25.70;57.40;;;;;;6194688;23;20040;-93
2023/06/30 10:54:29;;;;;;;4.38;1.40;;;25.20;57.40;;;;;;6218666;22;20015;-92
2023/06/30 10:57:18;;;;;;;2.80;1.30;;;25.10;54.10;;;;;;6217520;23;20449;-93
2023/06/30 11:00:01;;;;;;;3.03;1.20;;;24.70;53.80;;;;;;6193292;23;20008;-93
2023/06/30 11:02:57;;;;;;;2.90;1.30;;;24.30;55.80;;;;;;6217400;23;20091;-93
2023/06/30 11:05:35;;;;;;;4.30;1.48;;;23.80;56.80;;;;;;6190679;23;20012;-93
2023/06/30 11:08:01;;;;;;;4.25;1.30;;;23.70;59.50;;;;;;6218329;23;20453;-92
2023/06/30 11:10:27;;;;;;;3.63;1.20;;;23.40;59.90;;;;;;6217973;23;20042;-92
2023/06/30 11:12:58;;;;;;;3.30;1.40;;;23.20;59.70;;;;;;6193524;23;20023;-92
2023/06/30 11:15:44;;;;;;;2.20;1.17;;;23.20;61.00;;;;;;6219310;23;20078;-93
2023/06/30 11:18:20;;;;;;;3.05;1.50;;;23.00;61.90;;;;;;6192073;23;20070;-93
2023/06/30 11:21:06;;;;;;;3.70;1.02;;;23.00;60.90;;;;;;6193262;23;20016;-93
2023/06/30 11:23:39;;;;;;;2.67;1.30;;;23.20;61.00;;;;;;6192890;23;20070;-93
2023/06/30 11:26:16;;;;;;;2.58;1.30;;;24.00;63.30;;;;;;6192965;23;20341;-93
2023/06/30 11:28:44;;;;;;;2.33;1.10;;;24.80;63.30;;;;;;6217808;23;20012;-93
2023/06/30 11:31:12;;;;;;;2.25;1.30;;;25.10;60.00;;;;;;6218510;23;20122;-93
2023/06/30 11:33:42;;;;;;;1.52;1.10;;;24.70;58.70;;;;;;6192874;23;20099;-92
2023/06/30 11:36:15;;;;;;;2.10;1.02;;;24.70;59.10;;;;;;6192734;23;20008;-92
2023/06/30 11:38:44;;;;;;;;;;;24.90;56.10;;;;;;6218444;23;20020;-93
2023/06/30 11:41:12;;;;;;;1.48;1.08;;;25.10;55.20;;;;;;6243463;23;19969;-93
2023/06/30 11:43:39;;;;;;;3.10;1.20;;;25.40;56.40;;;;;;6192894;23;20040;-93
2023/06/30 11:46:05;;;;;;;3.00;1.00;;;25.80;56.20;;;;;;6192857;23;20516;-93
2023/06/30 11:48:40;;;;;;;2.88;1.23;;;26.40;55.20;;;;;;6192888;23;20012;-93
2023/06/30 11:51:06;;;;;;;2.70;1.13;;;26.10;53.10;;;;;;6192783;23;20023;-92
2023/06/30 11:53:31;;;;;;;3.63;1.30;;;25.70;53.10;;;;;;6194195;23;20012;-93
2023/06/30 11:55:58;;;;;;;3.05;1.05;;;26.00;53.20;;;;;;6195224;23;20592;-93
2023/06/30 11:58:27;;;;;;;3.88;1.35;;;26.40;53.20;;;;;;6195807;23;20468;-92
2023/06/30 12:00:52;;;;;;;1.80;1.05;;;26.40;51.50;;;;;;6219462;23;20407;-91
2023/06/30 12:03:18;;;;;;;1.83;1.10;;;26.20;50.90;;;;;;6194342;23;20012;-92
2023/06/30 12:05:57;;;;;;;3.63;1.30;;;26.40;50.70;;;;;;6219695;23;20020;-91
2023/06/30 12:08:26;;;;;;;1.70;1.10;;;26.50;49.00;;;;;;6195097;23;20012;-93
2023/06/30 12:10:52;;;;;;;3.53;1.33;;;26.80;49.50;;;;;;6194550;23;20023;-94
2023/06/30 12:13:19;;;;;;;3.20;1.50;;;26.90;48.20;;;;;;6220012;23;20012;-93
2023/06/30 12:15:46;;;;;;;3.28;1.30;;;26.90;48.10;;;;;;6220690;23;20012;-90
2023/06/30 12:18:12;;;;;;;4.00;1.55;;;26.80;49.00;;;;;;6221138;23;20091;-94
2023/06/30 12:20:40;;;;;;;4.82;1.70;;;27.20;49.80;;;;;;6195369;23;20575;-93
2023/06/30 12:23:07;;;;;;;2.22;1.15;;;27.30;48.80;;;;;;6201078;23;20436;-93
2023/06/30 12:25:34;;;;;;;3.63;1.52;;;26.80;48.90;;;;;;6221793;23;20110;-93
2023/06/30 12:28:04;;;;;;;3.42;1.50;;;26.80;49.80;;;;;;6196178;23;20315;-93
2023/06/30 12:30:30;;;;;;;7.03;1.80;;;27.00;50.00;;;;;;6220342;23;20396;-94
2023/06/30 12:32:58;;;;;;;4.50;1.77;;;27.40;50.50;;;;;;6194527;23;20042;-94
2023/06/30 12:35:28;;;;;;;1.95;1.27;;;27.80;49.90;;;;;;6195835;23;20016;-92
2023/06/30 12:37:54;;;;;;;1.75;1.25;;;27.80;47.60;;;;;;6219767;23;20016;-93
2023/06/30 12:40:22;;;;;;;2.45;1.13;;;27.80;48.20;;;;;;6219913;23;20441;-93
2023/06/30 12:42:47;;;;;;;2.80;1.42;;;27.80;49.10;;;;;;6195655;23;20027;-93
2023/06/30 12:45:14;;;;;;;2.35;1.42;;;28.20;50.40;;;;;;6194189;23;20283;-92
2023/06/30 12:47:40;;;;;;;3.08;1.58;;;28.60;50.00;;;;;;6193905;23;20030;-92